Time;durP1;ratioP1;P1;durP2;ratioP2;P2;SDS_P1;SDS_P2;PMS_P1;PMS_P2;Temp;Humidity;BMP_temperature;BMP_pressure;BME280_temperature;BME280_humidity;BME280_pressure;Samples;Min_cycle;Max_cycle;Signal;HPM_P1;HPM_P2
2023/10/08 00:00:39;;;;;;;1.58;0.70;;;13.40;99.90;;;;;;5077410;28;20075;-72
2023/10/08 00:02:50;;;;;;;1.52;0.60;;;13.40;99.90;;;;;;5077323;28;20151;-73
2023/10/08 00:05:16;;;;;;;1.42;0.52;;;13.40;99.90;;;;;;5076666;28;20050;-73
2023/10/08 00:07:43;;;;;;;1.73;0.68;;;13.40;99.90;;;;;;5076635;28;20053;-73
2023/10/08 00:10:09;;;;;;;1.10;0.60;;;13.40;99.90;;;;;;5076679;28;20048;-73
2023/10/08 00:12:34;;;;;;;1.65;0.50;;;13.30;99.90;;;;;;5076639;28;20052;-73
2023/10/08 00:15:00;;;;;;;0.85;0.50;;;13.30;99.90;;;;;;5076570;28;20048;-73
2023/10/08 00:17:26;;;;;;;2.28;0.50;;;13.30;99.90;;;;;;5075276;28;20432;-73
2023/10/08 00:19:52;;;;;;;0.55;0.40;;;13.30;99.90;;;;;;5076431;28;20052;-73
2023/10/08 00:22:19;;;;;;;1.48;0.50;;;13.30;99.90;;;;;;5076354;28;20041;-73
2023/10/08 00:24:54;;;;;;;1.85;0.60;;;13.30;99.90;;;;;;5076897;28;20044;-73
2023/10/08 00:27:21;;;;;;;1.38;0.60;;;13.30;99.90;;;;;;5075365;28;20059;-73
2023/10/08 00:29:47;;;;;;;1.20;0.50;;;13.30;99.90;;;;;;5076341;28;20045;-74
2023/10/08 00:32:13;;;;;;;1.65;0.70;;;13.30;99.90;;;;;;5076287;28;20124;-74
2023/10/08 00:34:43;;;;;;;1.65;0.70;;;13.30;99.90;;;;;;5076263;28;20048;-72
2023/10/08 00:37:14;;;;;;;1.40;0.70;;;13.30;99.90;;;;;;5076981;28;20051;-73
2023/10/08 00:39:41;;;;;;;1.42;0.70;;;13.30;99.90;;;;;;5076171;28;20091;-72
2023/10/08 00:42:07;;;;;;;2.28;0.88;;;13.30;99.90;;;;;;5076092;28;20048;-73
2023/10/08 00:44:51;;;;;;;1.25;0.70;;;13.30;99.90;;;;;;5075755;28;20497;-72
2023/10/08 00:47:18;;;;;;;2.33;0.73;;;13.30;99.90;;;;;;5076099;28;20040;-72
2023/10/08 00:57:29;;;;;;;1.60;0.90;;;13.30;99.90;;;;;;5075887;28;20056;-72
2023/10/08 00:59:57;;;;;;;2.35;0.90;;;13.30;99.90;;;;;;5075782;28;20481;-73
2023/10/08 01:02:28;;;;;;;1.92;0.80;;;13.30;99.90;;;;;;5076248;28;20045;-72
2023/10/08 01:04:55;;;;;;;1.83;0.82;;;13.30;99.90;;;;;;5076278;28;20048;-72
2023/10/08 01:07:23;;;;;;;1.30;0.70;;;13.30;99.90;;;;;;5074467;28;20044;-73
2023/10/08 01:09:59;;;;;;;1.50;0.80;;;13.30;99.90;;;;;;5076174;28;20373;-74
2023/10/08 01:12:27;;;;;;;2.08;0.90;;;13.30;99.90;;;;;;5076221;28;20052;-73
2023/10/08 01:14:54;;;;;;;2.38;1.00;;;13.30;99.90;;;;;;5075532;28;20052;-73
2023/10/08 01:17:26;;;;;;;1.50;0.80;;;13.30;99.90;;;;;;5075510;28;20386;-73
2023/10/08 01:20:33;;;;;;;3.10;0.88;;;13.30;99.90;;;;;;5075649;28;20519;-73
2023/10/08 01:22:41;;;;;;;1.98;0.75;;;13.30;99.90;;;;;;5075000;28;20088;-73
2023/10/08 01:25:10;;;;;;;2.75;0.90;;;13.20;99.90;;;;;;5076170;28;20114;-73
2023/10/08 01:27:37;;;;;;;0.98;0.52;;;13.20;99.90;;;;;;5075262;28;20073;-72
2023/10/08 01:30:17;;;;;;;1.30;0.63;;;13.20;99.90;;;;;;5075216;28;20075;-72
2023/10/08 01:32:44;;;;;;;2.45;0.75;;;13.20;99.90;;;;;;5075122;28;20048;-73
2023/10/08 01:35:26;;;;;;;1.40;0.70;;;13.30;99.90;;;;;;5075112;28;20052;-74
2023/10/08 01:37:56;;;;;;;2.08;0.70;;;13.30;99.90;;;;;;5075632;28;20055;-73
2023/10/08 01:40:22;;;;;;;2.55;0.80;;;13.30;99.90;;;;;;5075572;28;20052;-73
2023/10/08 01:42:54;;;;;;;1.50;0.80;;;13.30;99.90;;;;;;5075502;28;20466;-73
2023/10/08 01:45:20;;;;;;;1.40;0.60;;;13.30;99.90;;;;;;5074983;28;20044;-74
2023/10/08 01:47:51;;;;;;;1.38;0.65;;;13.30;99.90;;;;;;5074791;28;20382;-73
2023/10/08 01:50:22;;;;;;;2.15;0.70;;;13.30;99.90;;;;;;5057527;28;20044;-73
2023/10/08 01:52:48;;;;;;;1.20;0.60;;;13.30;99.90;;;;;;5074712;28;20061;-73
2023/10/08 01:55:18;;;;;;;2.75;0.70;;;13.20;99.90;;;;;;5073726;28;20049;-73
2023/10/08 01:57:48;;;;;;;1.40;0.60;;;13.20;99.90;;;;;;5074669;28;20460;-74
2023/10/08 02:00:14;;;;;;;3.63;0.70;;;13.20;99.90;;;;;;5074583;28;20200;-72
2023/10/08 02:02:43;;;;;;;2.05;0.70;;;13.20;99.90;;;;;;5074175;28;20044;-73
2023/10/08 02:05:09;;;;;;;1.13;0.63;;;13.20;99.90;;;;;;5074198;28;20504;-73
2023/10/08 02:07:35;;;;;;;1.60;0.70;;;13.20;99.90;;;;;;5074368;28;20049;-72
2023/10/08 02:10:01;;;;;;;1.52;0.70;;;13.20;99.90;;;;;;5074520;28;20052;-74
2023/10/08 02:12:26;;;;;;;1.42;0.70;;;13.20;99.90;;;;;;5074370;28;20049;-73
2023/10/08 02:14:52;;;;;;;1.50;0.70;;;13.20;99.90;;;;;;5074281;28;20527;-72
2023/10/08 02:17:19;;;;;;;1.90;0.70;;;13.30;99.90;;;;;;5073946;28;20480;-73
2023/10/08 02:19:45;;;;;;;1.40;0.77;;;13.30;99.90;;;;;;5074669;28;20462;-73
2023/10/08 02:22:11;;;;;;;1.88;0.75;;;13.30;99.90;;;;;;5074677;28;20084;-72
2023/10/08 02:24:38;;;;;;;1.40;0.70;;;13.30;99.90;;;;;;5074132;28;20525;-72
2023/10/08 02:27:03;;;;;;;1.25;0.70;;;13.20;99.90;;;;;;5074091;28;20127;-73
2023/10/08 02:29:30;;;;;;;2.00;0.80;;;13.20;99.90;;;;;;5074024;28;20132;-72
2023/10/08 02:31:59;;;;;;;3.28;0.75;;;13.30;99.90;;;;;;5074563;28;20045;-72
2023/10/08 02:34:25;;;;;;;3.08;0.90;;;13.20;99.90;;;;;;5074824;28;20076;-73
2023/10/08 02:36:51;;;;;;;1.40;0.70;;;13.20;99.90;;;;;;5073970;28;20408;-73
2023/10/08 02:39:21;;;;;;;1.75;0.60;;;13.20;99.90;;;;;;5074277;28;20040;-73
2023/10/08 02:41:48;;;;;;;2.28;0.90;;;13.30;99.90;;;;;;5073853;28;20045;-74
2023/10/08 02:44:16;;;;;;;1.75;0.90;;;13.30;99.90;;;;;;5073920;28;20044;-73
2023/10/08 02:46:49;;;;;;;1.10;0.70;;;13.30;99.90;;;;;;5073763;28;20137;-73
2023/10/08 02:49:20;;;;;;;2.47;0.85;;;13.30;99.90;;;;;;5073663;28;20056;-74
2023/10/08 02:51:50;;;;;;;2.00;0.73;;;13.30;99.90;;;;;;5073758;28;20056;-74
2023/10/08 02:54:18;;;;;;;1.40;0.80;;;13.30;99.90;;;;;;5073817;28;20469;-73
2023/10/08 02:56:52;;;;;;;2.50;0.80;;;13.30;99.90;;;;;;5072791;28;20149;-73
2023/10/08 02:59:22;;;;;;;2.20;0.82;;;13.30;99.90;;;;;;5074017;28;20047;-74
2023/10/08 03:01:57;;;;;;;1.35;0.80;;;13.30;99.90;;;;;;5074177;28;20044;-73
2023/10/08 03:04:24;;;;;;;2.10;1.00;;;13.30;99.90;;;;;;5074231;28;20044;-73
2023/10/08 03:06:50;;;;;;;1.70;0.80;;;13.30;99.90;;;;;;5073675;28;20075;-73
2023/10/08 03:09:31;;;;;;;2.63;0.80;;;13.30;99.90;;;;;;5073500;28;20161;-73
2023/10/08 03:11:58;;;;;;;1.70;0.90;;;13.30;99.90;;;;;;5073551;28;20084;-73
2023/10/08 03:14:26;;;;;;;1.92;0.93;;;13.30;99.90;;;;;;5073424;28;20059;-73
2023/10/08 03:16:54;;;;;;;1.40;0.80;;;13.30;99.90;;;;;;5074295;28;20044;-73
2023/10/08 03:19:21;;;;;;;1.70;0.80;;;13.30;99.90;;;;;;5073974;28;20132;-73
2023/10/08 03:21:51;;;;;;;1.63;0.90;;;13.20;99.90;;;;;;5073465;28;20385;-73
2023/10/08 03:27:07;;;;;;;1.38;0.82;;;13.30;99.90;;;;;;5073445;28;20063;-74
2023/10/08 03:29:41;;;;;;;1.67;1.00;;;13.20;99.90;;;;;;5074500;28;20137;-73
2023/10/08 03:32:15;;;;;;;2.38;1.10;;;13.20;99.90;;;;;;5077375;28;20082;-73
2023/10/08 03:34:47;;;;;;;1.15;0.63;;;13.20;99.90;;;;;;5076635;28;20059;-73
2023/10/08 03:37:21;;;;;;;3.20;1.00;;;13.20;99.90;;;;;;5077806;28;20075;-73
2023/10/08 03:39:51;;;;;;;1.45;0.73;;;13.20;99.90;;;;;;5076993;28;20481;-73
2023/10/08 03:42:25;;;;;;;2.38;0.80;;;13.20;99.90;;;;;;5077986;28;20127;-74
2023/10/08 03:44:52;;;;;;;2.47;0.95;;;13.20;99.90;;;;;;5077176;28;20048;-72
2023/10/08 03:47:19;;;;;;;2.05;0.93;;;13.20;99.90;;;;;;5077134;28;20045;-73
2023/10/08 03:49:50;;;;;;;1.70;0.82;;;13.20;99.90;;;;;;5077042;28;20048;-73
2023/10/08 03:52:18;;;;;;;2.65;1.05;;;13.20;99.90;;;;;;5077058;28;20135;-73
2023/10/08 03:55:04;;;;;;;2.60;1.00;;;13.20;99.90;;;;;;5077219;28;20079;-73
2023/10/08 03:57:41;;;;;;;1.70;0.80;;;13.20;99.90;;;;;;5077324;28;20048;-73
2023/10/08 04:00:18;;;;;;;1.90;1.00;;;13.20;99.90;;;;;;5077042;28;20040;-73
2023/10/08 04:02:55;;;;;;;1.63;0.60;;;13.20;99.90;;;;;;5076816;28;20083;-73
2023/10/08 04:05:32;;;;;;;3.00;0.90;;;13.20;99.90;;;;;;5077305;28;20052;-73
2023/10/08 04:13:08;;;;;;;2.85;0.90;;;13.20;99.90;;;;;;5077498;28;20129;-73
2023/10/08 04:15:40;;;;;;;2.10;1.00;;;13.20;99.90;;;;;;5076671;28;20123;-74
2023/10/08 04:18:10;;;;;;;2.00;1.13;;;13.20;99.90;;;;;;5075869;28;20059;-74
2023/10/08 04:20:39;;;;;;;2.35;1.10;;;13.20;99.90;;;;;;5076949;28;20385;-74
2023/10/08 04:23:20;;;;;;;1.83;1.00;;;13.20;99.90;;;;;;5076564;28;20036;-73
2023/10/08 04:25:51;;;;;;;2.03;0.90;;;13.20;99.90;;;;;;5077088;28;20048;-74
2023/10/08 04:28:20;;;;;;;2.35;1.20;;;13.20;99.90;;;;;;5076488;28;20113;-73
2023/10/08 04:30:50;;;;;;;2.40;1.00;;;13.20;99.90;;;;;;5075433;28;20049;-73
2023/10/08 04:33:16;;;;;;;2.60;1.17;;;13.20;99.90;;;;;;5076398;28;20127;-73
2023/10/08 04:35:56;;;;;;;2.58;1.15;;;13.20;99.90;;;;;;5076293;28;20123;-73
2023/10/08 04:38:26;;;;;;;2.25;1.00;;;13.20;99.90;;;;;;5075475;28;20049;-72
2023/10/08 04:40:52;;;;;;;4.72;1.40;;;13.20;99.90;;;;;;5074725;28;20048;-73
2023/10/08 04:43:27;;;;;;;2.85;1.20;;;13.20;99.90;;;;;;5076892;28;20197;-73
2023/10/08 04:45:56;;;;;;;1.90;0.98;;;13.20;99.90;;;;;;5076612;28;20052;-73
2023/10/08 04:48:27;;;;;;;2.85;1.10;;;13.10;99.90;;;;;;5075914;28;20040;-73
2023/10/08 04:50:59;;;;;;;1.98;1.15;;;13.20;99.90;;;;;;5076245;28;20044;-73
2023/10/08 04:53:36;;;;;;;1.70;1.00;;;13.10;99.90;;;;;;5075825;28;20146;-73
2023/10/08 04:56:13;;;;;;;2.88;1.13;;;13.10;99.90;;;;;;5075913;28;20059;-73
2023/10/08 04:58:40;;;;;;;3.22;1.00;;;13.10;99.90;;;;;;5075900;28;20040;-73
2023/10/08 05:01:29;;;;;;;2.03;0.90;;;13.20;99.90;;;;;;5074750;28;20049;-72
2023/10/08 05:08:59;;;;;;;2.60;1.13;;;13.10;99.90;;;;;;5075709;28;20162;-73
2023/10/08 05:11:25;;;;;;;4.22;1.00;;;13.10;99.90;;;;;;5075289;28;20481;-73
2023/10/08 05:14:05;;;;;;;1.63;0.88;;;13.10;99.90;;;;;;5075546;28;20056;-73
2023/10/08 05:16:44;;;;;;;2.03;0.80;;;13.10;99.90;;;;;;5076327;28;20051;-73
2023/10/08 05:22:17;;;;;;;2.92;0.90;;;13.00;99.90;;;;;;5075363;28;20467;-73
2023/10/08 05:24:51;;;;;;;2.45;0.80;;;13.00;99.90;;;;;;5075557;28;20101;-73
2023/10/08 05:57:07;;;;;;;3.85;1.00;;;13.00;99.90;;;;;;5074718;28;20052;-73
2023/10/08 06:13:13;;;;;;;2.42;0.90;;;13.00;99.90;;;;;;5075207;28;20063;-72
2023/10/08 06:16:05;;;;;;;2.72;1.27;;;13.10;99.90;;;;;;5075086;28;20087;-73
2023/10/08 06:18:32;;;;;;;1.88;0.95;;;13.00;99.90;;;;;;5074310;28;20110;-73
2023/10/08 06:21:08;;;;;;;3.45;1.15;;;13.00;99.90;;;;;;5073523;28;20048;-73
2023/10/08 06:23:36;;;;;;;2.40;1.05;;;13.00;99.90;;;;;;5073135;28;20055;-72
2023/10/08 06:26:13;;;;;;;3.50;1.30;;;13.10;99.90;;;;;;5074130;28;20054;-72
2023/10/08 06:28:41;;;;;;;3.45;1.08;;;13.10;99.90;;;;;;5074257;28;20135;-72
2023/10/08 06:31:17;;;;;;;2.60;0.93;;;13.10;99.90;;;;;;5074145;28;20078;-74
2023/10/08 06:33:44;;;;;;;1.85;0.98;;;13.10;99.90;;;;;;5074107;28;20055;-72
2023/10/08 06:38:38;;;;;;;3.65;1.20;;;13.20;99.90;;;;;;5074793;28;20059;-72
2023/10/08 06:41:17;;;;;;;2.40;1.00;;;13.20;99.90;;;;;;5073876;28;20052;-72
2023/10/08 06:44:02;;;;;;;2.10;1.35;;;13.20;99.90;;;;;;5074496;28;20051;-72
2023/10/08 06:46:32;;;;;;;2.63;1.05;;;13.20;99.90;;;;;;5074189;28;20390;-73
2023/10/08 06:48:58;;;;;;;3.28;1.20;;;13.20;99.90;;;;;;5074329;28;20054;-72
2023/10/08 06:51:25;;;;;;;1.80;1.00;;;13.20;99.90;;;;;;5073870;28;20119;-65
2023/10/08 06:53:53;;;;;;;2.60;1.25;;;13.30;99.90;;;;;;5074287;28;20105;-65
2023/10/08 06:56:19;;;;;;;3.10;1.20;;;13.30;99.90;;;;;;5074339;28;20078;-65
2023/10/08 06:58:48;;;;;;;2.95;1.08;;;13.40;99.90;;;;;;5073447;28;20048;-65
2023/10/08 07:01:21;;;;;;;4.45;1.38;;;13.50;99.90;;;;;;5073647;28;20078;-66
2023/10/08 07:03:49;;;;;;;2.80;1.10;;;13.60;99.90;;;;;;5073844;28;20110;-66
2023/10/08 07:06:25;;;;;;;2.47;0.93;;;13.70;99.90;;;;;;5073626;28;20045;-66
2023/10/08 07:08:55;;;;;;;2.17;0.90;;;13.70;99.90;;;;;;5073578;28;20133;-66
2023/10/08 07:11:22;;;;;;;3.58;1.10;;;13.60;99.90;;;;;;5073803;28;20524;-66
2023/10/08 07:13:48;;;;;;;3.17;1.10;;;13.70;99.90;;;;;;5073528;28;20401;-66
2023/10/08 07:16:17;;;;;;;3.20;1.05;;;13.70;99.90;;;;;;5074082;28;20053;-66
2023/10/08 07:18:52;;;;;;;5.32;1.02;;;13.70;99.90;;;;;;5072240;28;20036;-65
2023/10/08 07:21:28;;;;;;;2.33;0.93;;;13.70;99.90;;;;;;5073504;28;20149;-65
2023/10/08 07:23:57;;;;;;;;;;;13.70;99.90;;;;;;5073617;28;20493;-66
2023/10/08 07:26:36;;;;;;;3.70;1.13;;;13.70;99.90;;;;;;5073351;28;20368;-65
2023/10/08 07:29:08;;;;;;;3.97;1.10;;;13.80;99.90;;;;;;5073512;28;20044;-66
2023/10/08 07:31:41;;;;;;;3.05;1.30;;;13.80;99.90;;;;;;5074275;28;20037;-66
2023/10/08 07:36:50;;;;;;;3.28;1.30;;;13.90;99.90;;;;;;5073164;28;20098;-65
2023/10/08 07:39:33;;;;;;;4.97;1.08;;;14.00;99.90;;;;;;5072342;28;20091;-65
2023/10/08 07:42:01;;;;;;;4.70;1.50;;;14.00;99.90;;;;;;5073308;28;20049;-65
2023/10/08 07:44:30;;;;;;;4.15;1.00;;;14.00;99.90;;;;;;5074067;28;20110;-65
2023/10/08 07:46:56;;;;;;;3.17;1.10;;;14.10;99.90;;;;;;5072193;28;20393;-66
2023/10/08 07:49:31;;;;;;;1.88;0.85;;;14.10;99.90;;;;;;5072868;28;20041;-67
2023/10/08 07:51:59;;;;;;;3.70;0.95;;;14.10;99.90;;;;;;5072005;28;20492;-65
2023/10/08 07:54:27;;;;;;;3.03;1.05;;;14.20;99.90;;;;;;5072828;28;20102;-65
2023/10/08 07:57:08;;;;;;;4.45;0.88;;;14.20;99.90;;;;;;5072401;28;20572;-65
2023/10/08 07:59:46;;;;;;;4.82;1.05;;;14.30;99.90;;;;;;5073288;28;20084;-65
2023/10/08 08:02:14;;;;;;;2.33;0.80;;;14.30;99.90;;;;;;5072711;28;20044;-65
2023/10/08 08:04:43;;;;;;;1.70;0.80;;;14.30;99.90;;;;;;5072720;28;20040;-65
2023/10/08 08:07:15;;;;;;;2.83;0.82;;;14.30;99.90;;;;;;5073259;28;20056;-65
2023/10/08 08:09:48;;;;;;;2.90;0.98;;;14.30;99.90;;;;;;5072468;28;20053;-66
2023/10/08 08:12:13;;;;;;;3.50;1.10;;;14.40;99.90;;;;;;5072915;28;20435;-65
2023/10/08 08:14:41;;;;;;;2.88;1.02;;;14.40;99.90;;;;;;5072723;28;20052;-65
2023/10/08 08:17:13;;;;;;;2.50;0.85;;;14.40;99.90;;;;;;5076021;28;20048;-65
2023/10/08 08:19:47;;;;;;;2.78;1.25;;;14.40;99.90;;;;;;5076727;28;20137;-65
2023/10/08 08:22:31;;;;;;;4.30;1.10;;;14.40;99.90;;;;;;5076620;28;20393;-65
2023/10/08 08:25:15;;;;;;;3.25;0.80;;;14.40;99.90;;;;;;5077030;28;20441;-65
2023/10/08 08:27:46;;;;;;;3.08;1.02;;;14.30;99.90;;;;;;5076783;28;20041;-65
2023/10/08 08:30:15;;;;;;;3.15;1.23;;;14.30;99.90;;;;;;5076091;28;20051;-66
2023/10/08 08:32:43;;;;;;;4.78;1.15;;;14.20;99.90;;;;;;5075980;28;20070;-65
2023/10/08 08:35:10;;;;;;;6.70;1.40;;;14.20;99.90;;;;;;5076016;28;20133;-65
2023/10/08 08:37:38;;;;;;;3.40;1.02;;;14.20;99.90;;;;;;5075905;28;20055;-65
2023/10/08 08:40:17;;;;;;;3.30;1.02;;;14.10;99.90;;;;;;5075973;28;20557;-66
2023/10/08 08:42:45;;;;;;;2.92;1.23;;;14.00;99.90;;;;;;5075963;28;20192;-66
2023/10/08 08:45:13;;;;;;;2.88;0.90;;;13.90;99.90;;;;;;5075718;28;20052;-65
2023/10/08 08:47:41;;;;;;;4.57;1.13;;;14.00;99.90;;;;;;5075360;28;20105;-66
2023/10/08 08:50:08;;;;;;;3.03;1.13;;;14.00;99.90;;;;;;5075596;28;20052;-66
2023/10/08 08:52:38;;;;;;;4.63;1.00;;;14.00;99.90;;;;;;5075830;28;20091;-66
2023/10/08 08:55:09;;;;;;;4.47;1.40;;;14.10;99.90;;;;;;5076122;28;20177;-66
2023/10/08 08:57:39;;;;;;;3.88;1.17;;;14.20;99.90;;;;;;5076343;28;20048;-65
2023/10/08 09:00:10;;;;;;;4.38;1.10;;;14.30;99.90;;;;;;5076667;28;20047;-65
2023/10/08 09:02:37;;;;;;;2.30;0.90;;;14.30;99.90;;;;;;5074900;28;20377;-66
2023/10/08 09:05:13;;;;;;;4.85;1.25;;;14.30;99.90;;;;;;5075649;28;20048;-66
2023/10/08 09:08:04;;;;;;;;;;;14.30;99.90;;;;;;5075505;28;20110;-65
2023/10/08 09:10:36;;;;;;;4.07;0.90;;;14.30;99.90;;;;;;5069940;28;19927;-64
2023/10/08 09:13:07;;;;;;;4.57;1.02;;;14.30;99.90;;;;;;5075885;28;20381;-65
2023/10/08 09:15:33;;;;;;;2.38;0.82;;;14.50;99.90;;;;;;5075873;28;20048;-65
2023/10/08 09:18:00;;;;;;;3.13;1.00;;;14.60;99.90;;;;;;5075206;28;20105;-65
2023/10/08 09:20:27;;;;;;;2.08;0.90;;;14.70;99.90;;;;;;5074764;28;20470;-65
2023/10/08 09:23:14;;;;;;;3.63;1.08;;;14.80;99.90;;;;;;5073659;28;20037;-66
2023/10/08 09:25:41;;;;;;;4.47;1.00;;;14.90;99.90;;;;;;5075174;28;20044;-65
2023/10/08 09:28:07;;;;;;;5.38;1.20;;;15.10;99.90;;;;;;5073941;28;20397;-65
2023/10/08 09:30:39;;;;;;;2.63;1.10;;;15.30;99.90;;;;;;5074884;28;20055;-65
2023/10/08 09:33:10;;;;;;;3.70;1.08;;;15.40;99.90;;;;;;5075664;28;20389;-66
2023/10/08 09:35:36;;;;;;;3.20;0.90;;;15.40;99.90;;;;;;5074829;28;20044;-66
2023/10/08 09:38:09;;;;;;;2.10;0.85;;;15.40;99.90;;;;;;5074748;28;20049;-66
2023/10/08 09:40:40;;;;;;;4.20;0.88;;;15.40;99.90;;;;;;5075011;28;20056;-66
2023/10/08 09:43:08;;;;;;;2.85;1.00;;;15.40;99.90;;;;;;5074562;28;20127;-66
2023/10/08 09:45:35;;;;;;;3.13;0.90;;;15.50;99.90;;;;;;5074480;28;20418;-66
2023/10/08 09:48:05;;;;;;;4.15;1.00;;;15.60;99.90;;;;;;5074776;28;20056;-66
2023/10/08 09:50:36;;;;;;;3.17;0.90;;;15.60;99.90;;;;;;5074991;28;20548;-66
2023/10/08 09:53:22;;;;;;;2.97;0.93;;;15.60;99.90;;;;;;5075020;28;20135;-66
2023/10/08 09:55:54;;;;;;;2.95;0.90;;;15.80;99.90;;;;;;5075136;28;20048;-66
2023/10/08 09:58:23;;;;;;;5.00;1.20;;;15.80;99.90;;;;;;5075491;28;20431;-65
2023/10/08 10:00:49;;;;;;;4.95;1.13;;;15.90;99.90;;;;;;5074557;28;20499;-65
2023/10/08 10:03:18;;;;;;;2.60;0.90;;;16.20;99.90;;;;;;5074464;28;20428;-67
2023/10/08 10:05:44;;;;;;;4.95;1.10;;;16.50;99.90;;;;;;5074539;28;20060;-64
2023/10/08 10:08:10;;;;;;;3.00;0.90;;;16.90;99.90;;;;;;5074456;28;20436;-64
2023/10/08 10:10:38;;;;;;;4.10;0.95;;;17.00;99.90;;;;;;5075278;28;20046;-64
2023/10/08 10:13:10;;;;;;;3.55;0.93;;;17.00;99.90;;;;;;5074144;28;20041;-64
2023/10/08 10:15:41;;;;;;;3.03;0.90;;;16.80;99.90;;;;;;5074337;28;20095;-65
2023/10/08 10:18:13;;;;;;;3.00;0.88;;;16.60;99.90;;;;;;5074270;28;20404;-65
2023/10/08 10:21:20;;;;;;;4.00;1.27;;;16.50;99.90;;;;;;5073181;28;20543;-65
2023/10/08 10:23:50;;;;;;;2.75;0.82;;;16.60;99.90;;;;;;5045305;28;20057;-65
2023/10/08 10:26:23;;;;;;;4.00;0.90;;;16.70;99.90;;;;;;5074798;28;20044;-65
2023/10/08 10:29:07;;;;;;;4.47;0.82;;;16.50;99.90;;;;;;5073579;28;20053;-65
2023/10/08 10:31:35;;;;;;;3.97;1.20;;;16.40;99.90;;;;;;5074145;28;20135;-65
2023/10/08 10:34:08;;;;;;;2.70;0.93;;;16.20;99.90;;;;;;5074868;28;20090;-65
2023/10/08 10:36:39;;;;;;;6.68;1.25;;;16.10;99.90;;;;;;5073020;28;20044;-65
2023/10/08 10:42:06;;;;;;;4.13;0.85;;;16.00;99.90;;;;;;5068097;28;20044;-65
2023/10/08 10:44:36;;;;;;;2.38;1.23;;;16.30;99.90;;;;;;5073968;28;20045;-65
2023/10/08 10:52:34;;;;;;;;;;;16.80;99.90;;;;;;5074667;28;20064;-65
2023/10/08 10:57:43;;;;;;;4.55;1.00;;;17.00;99.90;;;;;;5074002;28;20051;-65
2023/10/08 11:02:59;;;;;;;3.60;0.90;;;17.20;99.90;;;;;;5061739;28;20145;-65
2023/10/08 11:05:29;;;;;;;2.92;0.93;;;17.10;99.90;;;;;;5073577;28;20040;-65
2023/10/08 11:08:10;;;;;;;4.32;1.40;;;17.00;99.90;;;;;;5073596;28;20052;-65
2023/10/08 11:10:46;;;;;;;3.58;0.82;;;16.90;99.90;;;;;;5073917;28;20044;-64
2023/10/08 11:13:14;;;;;;;3.80;1.00;;;16.90;99.90;;;;;;5073637;28;20049;-65
2023/10/08 11:15:49;;;;;;;4.85;1.10;;;17.00;99.90;;;;;;5073249;28;20509;-65
2023/10/08 11:18:19;;;;;;;3.83;1.00;;;17.10;99.90;;;;;;5073572;28;20049;-65
2023/10/08 11:20:46;;;;;;;3.25;1.10;;;17.10;99.90;;;;;;5073372;28;20098;-66
2023/10/08 11:23:35;;;;;;;4.80;1.10;;;17.20;99.90;;;;;;5072326;28;20045;-65
2023/10/08 11:26:03;;;;;;;2.35;0.80;;;17.20;99.90;;;;;;5073430;28;20071;-65
2023/10/08 11:28:42;;;;;;;5.85;0.90;;;17.10;99.90;;;;;;5073465;28;20055;-65
2023/10/08 11:31:11;;;;;;;4.00;1.30;;;17.00;99.90;;;;;;5073391;28;20041;-65
2023/10/08 11:33:38;;;;;;;9.60;1.42;;;17.10;99.90;;;;;;5073901;28;20088;-65
2023/10/08 11:36:27;;;;;;;3.83;1.05;;;17.20;99.90;;;;;;5073385;28;20052;-65
2023/10/08 11:39:00;;;;;;;4.00;1.00;;;17.40;99.90;;;;;;5072559;28;20234;-65
2023/10/08 11:41:27;;;;;;;5.65;1.17;;;17.50;99.90;;;;;;5073272;28;20047;-65
2023/10/08 11:43:58;;;;;;;6.63;0.90;;;17.50;99.90;;;;;;5073838;28;20052;-65
2023/10/08 11:46:33;;;;;;;6.35;1.00;;;17.50;99.90;;;;;;5073258;28;20040;-66
2023/10/08 11:49:04;;;;;;;3.25;0.93;;;17.40;99.90;;;;;;5073046;28;20056;-65
2023/10/08 11:51:34;;;;;;;3.95;0.93;;;17.30;99.90;;;;;;5075905;28;20047;-65
2023/10/08 11:54:05;;;;;;;5.22;1.20;;;17.30;99.90;;;;;;5077559;28;20060;-65
2023/10/08 11:56:33;;;;;;;4.53;0.82;;;17.30;99.90;;;;;;5077108;28;20421;-65
2023/10/08 11:59:01;;;;;;;4.43;1.00;;;17.40;99.90;;;;;;5077536;28;20099;-65
2023/10/08 12:01:27;;;;;;;6.53;1.20;;;17.40;99.90;;;;;;5076875;28;20048;-65
2023/10/08 12:03:59;;;;;;;2.22;1.17;;;17.40;99.90;;;;;;5077748;28;20052;-65
2023/10/08 12:06:29;;;;;;;4.55;1.20;;;17.40;99.90;;;;;;5076433;28;20052;-65
2023/10/08 12:08:58;;;;;;;3.92;1.05;;;17.40;99.90;;;;;;5077132;28;20400;-65
2023/10/08 12:11:30;;;;;;;5.70;1.08;;;17.40;99.90;;;;;;5076678;28;20051;-65
2023/10/08 12:13:58;;;;;;;5.00;1.15;;;17.40;99.90;;;;;;5076836;28;20087;-65
2023/10/08 12:16:29;;;;;;;3.88;0.90;;;17.50;99.90;;;;;;5076534;28;20052;-65
2023/10/08 12:19:01;;;;;;;5.50;1.10;;;17.50;99.90;;;;;;5077187;28;20123;-65
2023/10/08 12:21:30;;;;;;;6.25;1.00;;;17.60;99.90;;;;;;5077049;28;20390;-65
2023/10/08 12:23:58;;;;;;;3.08;0.90;;;17.70;99.90;;;;;;5076505;28;20044;-65
2023/10/08 12:26:24;;;;;;;3.33;0.82;;;17.80;99.90;;;;;;5076608;28;20044;-65
2023/10/08 12:28:50;;;;;;;3.03;0.80;;;18.00;99.90;;;;;;5076297;28;20139;-65
2023/10/08 12:31:23;;;;;;;2.65;0.90;;;18.20;99.90;;;;;;5076162;28;20041;-65
2023/10/08 12:33:53;;;;;;;4.70;0.90;;;18.20;99.90;;;;;;5076771;28;20087;-65
2023/10/08 12:36:23;;;;;;;3.97;0.90;;;18.10;99.90;;;;;;5076244;28;20189;-65
2023/10/08 12:38:49;;;;;;;6.22;1.20;;;18.10;99.90;;;;;;5076754;28;20051;-65
2023/10/08 12:41:18;;;;;;;3.13;1.10;;;17.90;99.90;;;;;;5075915;28;20385;-65
2023/10/08 12:43:45;;;;;;;4.40;0.90;;;17.80;99.90;;;;;;5076289;28;20075;-65
2023/10/08 12:46:27;;;;;;;3.50;1.00;;;17.80;99.90;;;;;;5075424;28;20489;-65
2023/10/08 12:48:56;;;;;;;4.80;1.27;;;17.70;99.90;;;;;;5076004;28;20049;-65
2023/10/08 12:51:24;;;;;;;3.45;1.00;;;17.60;99.90;;;;;;5075896;28;20040;-66
2023/10/08 12:54:03;;;;;;;5.28;1.00;;;17.50;99.90;;;;;;5076352;28;20056;-65
2023/10/08 12:56:35;;;;;;;3.45;0.77;;;17.50;99.90;;;;;;5075830;28;20686;-65
2023/10/08 12:59:08;;;;;;;3.28;0.90;;;17.40;99.90;;;;;;5076423;28;20120;-65
2023/10/08 13:01:36;;;;;;;4.20;1.05;;;17.30;99.90;;;;;;5075671;28;20045;-65
2023/10/08 13:04:07;;;;;;;3.20;1.05;;;17.30;99.90;;;;;;5076020;28;20051;-65
2023/10/08 13:06:36;;;;;;;5.25;1.00;;;17.20;99.90;;;;;;5075035;28;20056;-65
2023/10/08 13:09:09;;;;;;;3.03;0.82;;;17.20;99.90;;;;;;5075012;28;20503;-65
2023/10/08 13:11:34;;;;;;;4.13;0.90;;;17.10;99.90;;;;;;5075694;28;20094;-66
2023/10/08 13:14:00;;;;;;;5.93;1.02;;;17.00;99.90;;;;;;5075477;28;20048;-66
2023/10/08 13:16:37;;;;;;;5.55;0.90;;;17.00;99.90;;;;;;5076374;28;20101;-66
2023/10/08 13:19:03;;;;;;;2.70;0.80;;;16.90;99.90;;;;;;5076056;28;20044;-65
2023/10/08 13:21:28;;;;;;;2.72;1.13;;;16.90;99.90;;;;;;5075299;28;20132;-66
2023/10/08 13:24:00;;;;;;;3.78;1.10;;;17.00;99.90;;;;;;5074784;28;20076;-66
2023/10/08 13:26:32;;;;;;;5.90;1.15;;;16.90;99.90;;;;;;5075340;28;20041;-66
2023/10/08 13:28:58;;;;;;;3.78;0.93;;;16.90;99.90;;;;;;5075953;28;20047;-65
2023/10/08 13:31:25;;;;;;;3.70;0.88;;;16.90;99.90;;;;;;5075048;28;20032;-65
2023/10/08 13:33:52;;;;;;;4.50;1.25;;;16.80;99.90;;;;;;5075148;28;20059;-65
2023/10/08 13:36:18;;;;;;;4.40;0.98;;;16.80;99.90;;;;;;5075183;28;20060;-66
2023/10/08 13:38:48;;;;;;;3.88;1.10;;;16.80;99.90;;;;;;5075110;28;20044;-66
2023/10/08 13:41:20;;;;;;;4.80;1.00;;;16.80;99.90;;;;;;5074913;28;20043;-66
2023/10/08 13:43:51;;;;;;;2.65;0.90;;;16.80;99.90;;;;;;5075882;28;20047;-66
2023/10/08 13:46:18;;;;;;;4.18;0.93;;;16.80;99.90;;;;;;5075597;28;20135;-66
2023/10/08 13:48:48;;;;;;;5.20;1.00;;;16.80;99.90;;;;;;5074830;28;20060;-65
2023/10/08 13:51:25;;;;;;;2.63;0.80;;;16.80;99.90;;;;;;5075365;28;20127;-66
2023/10/08 13:54:02;;;;;;;4.13;0.90;;;16.70;99.90;;;;;;5075389;28;20064;-65
2023/10/08 13:56:30;;;;;;;2.88;0.77;;;16.70;99.90;;;;;;5075012;28;20059;-65
2023/10/08 13:59:12;;;;;;;3.45;0.90;;;16.70;99.90;;;;;;5074711;28;20049;-65
2023/10/08 14:01:45;;;;;;;2.63;0.95;;;16.60;99.90;;;;;;5073441;28;20040;-66
2023/10/08 14:04:15;;;;;;;3.13;1.05;;;16.60;99.90;;;;;;5074298;28;20555;-64
2023/10/08 14:06:47;;;;;;;3.30;1.08;;;16.60;99.90;;;;;;5074144;28;20467;-65
2023/10/08 14:09:20;;;;;;;3.25;0.90;;;16.60;99.90;;;;;;5074760;28;20428;-64
2023/10/08 14:11:47;;;;;;;3.55;0.90;;;16.60;99.90;;;;;;5074367;28;20059;-66
2023/10/08 14:14:16;;;;;;;3.70;0.77;;;16.60;99.90;;;;;;5073526;28;20622;-66
2023/10/08 14:16:42;;;;;;;2.38;1.00;;;16.60;99.90;;;;;;5074344;28;20041;-65
2023/10/08 14:19:12;;;;;;;4.63;0.98;;;16.60;99.90;;;;;;5074278;28;20493;-65
2023/10/08 14:21:54;;;;;;;2.35;0.88;;;16.60;99.90;;;;;;5074429;28;20101;-65
2023/10/08 14:24:20;;;;;;;2.78;0.77;;;16.60;99.90;;;;;;5074281;28;20060;-66
2023/10/08 14:26:54;;;;;;;3.03;0.90;;;16.70;99.90;;;;;;5074109;28;20542;-66
2023/10/08 14:29:20;;;;;;;5.18;1.15;;;16.70;99.90;;;;;;5075081;28;20056;-65
2023/10/08 14:31:48;;;;;;;4.35;0.98;;;16.70;99.90;;;;;;5073996;28;20141;-65